Time;durP1;ratioP1;P1;durP2;ratioP2;P2;SDS_P1;SDS_P2;PMS_P1;PMS_P2;Temp;Humidity;BMP_temperature;BMP_pressure;BME280_temperature;BME280_humidity;BME280_pressure;Samples;Min_cycle;Max_cycle;Signal;HPM_P1;HPM_P2
2021/01/23 00:01:26;;;;;;;4.38;3.40;;;;;;;;;;5079426;28;20286;-46
2021/01/23 00:03:52;;;;;;;4.85;3.83;;;;;;;;;;5082928;28;20175;-46
2021/01/23 00:06:18;;;;;;;4.97;3.58;;;;;;;;;;5076288;28;20200;-46
2021/01/23 00:08:44;;;;;;;6.32;3.55;;;;;;;;;;5096780;28;20239;-46
2021/01/23 00:11:10;;;;;;;6.65;3.42;;;;;;;;;;5094512;28;20197;-46
2021/01/23 00:13:36;;;;;;;5.15;3.63;;;;;;;;;;5080138;28;20257;-47
2021/01/23 00:16:02;;;;;;;5.65;3.28;;;;;;;;;;5076424;28;20171;-47
2021/01/23 00:18:28;;;;;;;4.30;3.15;;;;;;;;;;5084545;28;20205;-46
2021/01/23 00:20:54;;;;;;;4.57;3.40;;;;;;;;;;5094099;28;20182;-47
2021/01/23 00:23:20;;;;;;;3.90;2.95;;;;;;;;;;5086181;28;20178;-47
2021/01/23 00:25:46;;;;;;;5.70;3.13;;;;;;;;;;5089301;28;20185;-47
2021/01/23 00:28:12;;;;;;;4.30;3.08;;;;;;;;;;5081807;28;20231;-47
2021/01/23 00:30:38;;;;;;;5.22;3.20;;;;;;;;;;5076575;28;20452;-47
2021/01/23 00:33:04;;;;;;;4.03;3.17;;;;;;;;;;5094235;28;20231;-47
2021/01/23 00:35:30;;;;;;;5.18;3.00;;;;;;;;;;5095303;28;20307;-47
2021/01/23 00:37:56;;;;;;;4.70;3.10;;;;;;;;;;5096362;28;20543;-46
2021/01/23 00:40:22;;;;;;;3.65;3.00;;;;;;;;;;5084251;28;20209;-46
2021/01/23 00:42:48;;;;;;;3.83;2.88;;;;;;;;;;5092127;28;20218;-46
2021/01/23 00:45:14;;;;;;;3.20;2.90;;;;;;;;;;5096828;28;20600;-47
2021/01/23 00:47:40;;;;;;;3.45;2.80;;;;;;;;;;5084124;28;20581;-46
2021/01/23 00:50:06;;;;;;;3.50;2.78;;;;;;;;;;5076286;28;20265;-46
2021/01/23 00:52:32;;;;;;;3.40;2.80;;;;;;;;;;5083361;28;20187;-47
2021/01/23 00:54:58;;;;;;;2.78;2.58;;;;;;;;;;5075512;28;20178;-47
2021/01/23 00:57:24;;;;;;;3.85;2.72;;;;;;;;;;5083042;28;20618;-47
2021/01/23 00:59:50;;;;;;;4.25;3.08;;;;;;;;;;5093965;28;20182;-47
2021/01/23 01:02:16;;;;;;;3.10;2.80;;;;;;;;;;5083522;28;20466;-46
2021/01/23 01:04:42;;;;;;;3.65;2.47;;;;;;;;;;5095514;28;20268;-47
2021/01/23 01:07:08;;;;;;;3.70;2.55;;;;;;;;;;5095859;28;20200;-46
2021/01/23 01:09:34;;;;;;;2.80;2.50;;;;;;;;;;5095372;28;20193;-46
2021/01/23 01:12:00;;;;;;;3.15;2.60;;;;;;;;;;5090667;28;20197;-46
2021/01/23 01:14:27;;;;;;;4.72;2.75;;;;;;;;;;5094116;28;20231;-47
2021/01/23 01:16:52;;;;;;;3.00;2.50;;;;;;;;;;5095451;28;20202;-47
2021/01/23 01:19:19;;;;;;;2.30;2.10;;;;;;;;;;5097438;28;20173;-46
2021/01/23 01:21:44;;;;;;;4.68;2.92;;;;;;;;;;5101391;28;20261;-46
2021/01/23 01:24:11;;;;;;;2.65;2.45;;;;;;;;;;5092677;28;20276;-46
2021/01/23 01:26:37;;;;;;;2.83;2.33;;;;;;;;;;5095517;28;20181;-47
2021/01/23 01:29:03;;;;;;;2.60;2.20;;;;;;;;;;5095824;28;20178;-47
2021/01/23 01:31:29;;;;;;;2.88;2.38;;;;;;;;;;5083907;28;20553;-46
2021/01/23 01:33:55;;;;;;;3.38;2.47;;;;;;;;;;5075061;28;20205;-46
2021/01/23 01:36:21;;;;;;;2.20;2.00;;;;;;;;;;5076101;28;20205;-46
2021/01/23 01:38:47;;;;;;;3.03;2.47;;;;;;;;;;5095297;28;20177;-46
2021/01/23 01:41:14;;;;;;;2.33;2.13;;;;;;;;;;5089586;28;20580;-47
2021/01/23 01:43:40;;;;;;;3.25;2.80;;;;;;;;;;5087936;28;20188;-46
2021/01/23 01:46:08;;;;;;;2.50;2.30;;;;;;;;;;5095004;28;20177;-46
2021/01/23 01:48:34;;;;;;;3.47;2.67;;;;;;;;;;5076978;28;20183;-47
2021/01/23 01:51:00;;;;;;;2.70;2.28;;;;;;;;;;5092568;28;20203;-46
2021/01/23 01:53:26;;;;;;;2.40;2.20;;;;;;;;;;5082014;28;20521;-46
2021/01/23 01:55:52;;;;;;;2.58;1.92;;;;;;;;;;5075322;28;20171;-46
2021/01/23 01:58:18;;;;;;;2.45;1.95;;;;;;;;;;5079363;28;20209;-46
2021/01/23 02:00:44;;;;;;;2.45;2.03;;;;;;;;;;5079118;28;20181;-47
2021/01/23 02:03:32;;;;;;;2.53;2.10;;;;;;;;;;5085656;28;20261;-47
2021/01/23 02:06:08;;;;;;;3.45;1.80;;;;;;;;;;5074196;28;20202;-47
2021/01/23 02:08:40;;;;;;;2.40;1.90;;;;;;;;;;5089364;28;20234;-46
2021/01/23 02:11:15;;;;;;;1.80;1.70;;;;;;;;;;5092509;28;20189;-46
2021/01/23 02:13:45;;;;;;;2.15;1.88;;;;;;;;;;5086653;28;20456;-46
2021/01/23 02:16:13;;;;;;;1.98;1.77;;;;;;;;;;5092961;28;20261;-47
2021/01/23 02:18:42;;;;;;;2.03;1.83;;;;;;;;;;5075585;28;20626;-47
2021/01/23 02:21:11;;;;;;;2.15;1.95;;;;;;;;;;5091023;28;20186;-47
2021/01/23 02:23:38;;;;;;;2.00;1.80;;;;;;;;;;5085491;28;20228;-46
2021/01/23 02:26:12;;;;;;;3.15;2.22;;;;;;;;;;5093789;28;20555;-46
2021/01/23 02:28:50;;;;;;;2.50;2.00;;;;;;;;;;5093592;28;20209;-47
2021/01/23 02:31:21;;;;;;;2.58;2.00;;;;;;;;;;5085255;28;20185;-47
2021/01/23 02:33:53;;;;;;;1.90;1.77;;;;;;;;;;5080739;28;20225;-47
2021/01/23 02:36:21;;;;;;;2.13;1.70;;;;;;;;;;5091434;28;20181;-46
2021/01/23 02:38:48;;;;;;;2.70;1.85;;;;;;;;;;5094087;28;20216;-46
2021/01/23 02:41:14;;;;;;;1.80;1.70;;;;;;;;;;5093134;28;20196;-46
2021/01/23 02:43:42;;;;;;;1.92;1.73;;;;;;;;;;5075170;28;20718;-46
2021/01/23 02:46:08;;;;;;;3.38;1.63;;;;;;;;;;5074673;28;20171;-47
2021/01/23 02:48:34;;;;;;;2.67;1.70;;;;;;;;;;5073645;28;20181;-46
2021/01/23 02:51:01;;;;;;;1.70;1.60;;;;;;;;;;5093283;28;20234;-46
2021/01/23 02:53:31;;;;;;;2.17;1.70;;;;;;;;;;5092378;28;20178;-46
2021/01/23 02:55:58;;;;;;;1.77;1.67;;;;;;;;;;5093603;28;20178;-46
2021/01/23 02:58:26;;;;;;;1.75;1.65;;;;;;;;;;5077139;28;20198;-47
2021/01/23 03:00:53;;;;;;;2.15;1.60;;;;;;;;;;5078591;28;20198;-47
2021/01/23 03:03:20;;;;;;;1.50;1.40;;;;;;;;;;5074328;28;20189;-46
2021/01/23 03:05:47;;;;;;;1.70;1.60;;;;;;;;;;5074037;28;20205;-49
2021/01/23 03:08:13;;;;;;;1.98;1.60;;;;;;;;;;5077586;28;20252;-47
2021/01/23 03:10:41;;;;;;;1.65;1.40;;;;;;;;;;5082248;28;20222;-47
2021/01/23 03:13:07;;;;;;;1.70;1.55;;;;;;;;;;5092917;28;20194;-47
2021/01/23 03:15:33;;;;;;;1.77;1.50;;;;;;;;;;5092878;28;20188;-46
2021/01/23 03:18:00;;;;;;;1.40;1.30;;;;;;;;;;5073947;28;20213;-47
2021/01/23 03:20:26;;;;;;;1.40;1.30;;;;;;;;;;5085759;28;20178;-47
2021/01/23 03:22:56;;;;;;;1.50;1.40;;;;;;;;;;5091028;28;20162;-46
2021/01/23 03:25:22;;;;;;;1.40;1.30;;;;;;;;;;5093188;28;20181;-46
2021/01/23 03:27:48;;;;;;;1.80;1.40;;;;;;;;;;5075876;28;20580;-46
2021/01/23 03:30:14;;;;;;;1.45;1.35;;;;;;;;;;5073267;28;20268;-46
2021/01/23 03:32:40;;;;;;;1.27;1.20;;;;;;;;;;5087894;28;20442;-46
2021/01/23 03:35:07;;;;;;;1.50;1.40;;;;;;;;;;5093346;28;20614;-46
2021/01/23 03:37:33;;;;;;;1.27;1.17;;;;;;;;;;5077246;28;20210;-46
2021/01/23 03:40:00;;;;;;;2.13;1.20;;;;;;;;;;5075146;28;20174;-46
2021/01/23 03:42:26;;;;;;;1.45;1.35;;;;;;;;;;5089715;28;20530;-46
2021/01/23 03:44:52;;;;;;;1.30;1.20;;;;;;;;;;5097173;28;20182;-46
2021/01/23 03:47:18;;;;;;;1.10;1.02;;;;;;;;;;5089569;28;20189;-46
2021/01/23 03:49:44;;;;;;;1.30;1.20;;;;;;;;;;5103199;28;20193;-46
2021/01/23 03:52:10;;;;;;;1.10;1.08;;;;;;;;;;5104904;28;20470;-46
2021/01/23 03:54:38;;;;;;;1.30;1.20;;;;;;;;;;5096777;28;20217;-46
2021/01/23 03:57:04;;;;;;;1.30;1.20;;;;;;;;;;5091050;28;20194;-46
2021/01/23 03:59:30;;;;;;;1.52;1.33;;;;;;;;;;5096721;28;20169;-46
2021/01/23 04:01:56;;;;;;;0.98;0.98;;;;;;;;;;5080424;28;20198;-46
2021/01/23 04:04:22;;;;;;;0.93;0.93;;;;;;;;;;5075998;28;20224;-47
2021/01/23 04:06:48;;;;;;;1.45;1.20;;;;;;;;;;5082358;28;20187;-47
2021/01/23 04:09:14;;;;;;;1.35;1.25;;;;;;;;;;5076601;28;20202;-47
2021/01/23 04:11:40;;;;;;;1.40;1.30;;;;;;;;;;5086258;28;20349;-47
2021/01/23 04:14:07;;;;;;;1.30;1.20;;;;;;;;;;5096856;28;20178;-46
2021/01/23 04:16:33;;;;;;;1.80;1.17;;;;;;;;;;5084387;28;20669;-46
2021/01/23 04:18:59;;;;;;;1.10;1.00;;;;;;;;;;5098287;28;20620;-46
2021/01/23 04:21:25;;;;;;;1.17;1.08;;;;;;;;;;5108013;28;20618;-46
2021/01/23 04:23:51;;;;;;;1.00;0.90;;;;;;;;;;5092239;28;20263;-46
2021/01/23 04:26:17;;;;;;;1.15;1.05;;;;;;;;;;5079489;28;20197;-46
2021/01/23 04:28:43;;;;;;;1.10;1.00;;;;;;;;;;5095416;28;20217;-46
2021/01/23 04:31:09;;;;;;;1.25;1.15;;;;;;;;;;5092334;28;20694;-46
2021/01/23 04:33:35;;;;;;;1.42;1.10;;;;;;;;;;5076037;28;20201;-46
2021/01/23 04:36:02;;;;;;;1.10;1.00;;;;;;;;;;5077113;28;20179;-46
2021/01/23 04:38:28;;;;;;;1.23;1.13;;;;;;;;;;5095846;28;20248;-46
2021/01/23 04:40:55;;;;;;;1.27;1.15;;;;;;;;;;5093738;28;20216;-46
2021/01/23 04:43:22;;;;;;;1.63;1.00;;;;;;;;;;5090258;28;20228;-46
2021/01/23 04:45:48;;;;;;;0.80;0.80;;;;;;;;;;5096009;28;20170;-46
2021/01/23 04:48:16;;;;;;;1.13;1.02;;;;;;;;;;5076103;28;20179;-46
2021/01/23 04:50:42;;;;;;;0.90;0.90;;;;;;;;;;5082493;28;20272;-46
2021/01/23 04:53:08;;;;;;;1.02;0.93;;;;;;;;;;5093947;28;20217;-46
2021/01/23 04:55:34;;;;;;;1.48;1.00;;;;;;;;;;5094913;28;20505;-46
2021/01/23 04:58:00;;;;;;;0.75;0.75;;;;;;;;;;5091629;28;20223;-46
2021/01/23 05:00:26;;;;;;;1.10;1.00;;;;;;;;;;5094022;28;20239;-46
2021/01/23 05:02:59;;;;;;;1.05;1.00;;;;;;;;;;5085892;28;20581;-46
2021/01/23 05:05:25;;;;;;;1.02;0.95;;;;;;;;;;5074813;28;20221;-46
2021/01/23 05:07:51;;;;;;;1.02;0.88;;;;;;;;;;5076083;28;20182;-46
2021/01/23 05:10:18;;;;;;;1.00;0.90;;;;;;;;;;5075530;28;20660;-46
2021/01/23 05:12:45;;;;;;;0.80;0.80;;;;;;;;;;5083706;28;20217;-46
2021/01/23 05:15:13;;;;;;;1.95;0.80;;;;;;;;;;5075207;28;20183;-46
2021/01/23 05:17:51;;;;;;;0.80;0.80;;;;;;;;;;5075559;28;20510;-47
2021/01/23 05:20:29;;;;;;;0.70;0.70;;;;;;;;;;5105716;28;20212;-47
2021/01/23 05:22:55;;;;;;;0.80;0.80;;;;;;;;;;5090070;28;20315;-46
2021/01/23 05:25:21;;;;;;;0.80;0.80;;;;;;;;;;5088522;28;20186;-47
2021/01/23 05:27:47;;;;;;;1.13;0.90;;;;;;;;;;5075906;28;20201;-46
2021/01/23 05:30:13;;;;;;;0.90;0.90;;;;;;;;;;5095196;28;20205;-46
2021/01/23 05:32:39;;;;;;;0.73;0.70;;;;;;;;;;5080181;28;20197;-46
2021/01/23 05:35:15;;;;;;;1.67;0.70;;;;;;;;;;5074971;28;20178;-47
2021/01/23 05:37:41;;;;;;;1.77;0.70;;;;;;;;;;5074796;28;20288;-47
2021/01/23 05:40:07;;;;;;;1.58;0.82;;;;;;;;;;5075811;28;20266;-46
2021/01/23 05:42:43;;;;;;;3.17;0.85;;;;;;;;;;5088343;28;20190;-46
2021/01/23 05:45:13;;;;;;;1.50;0.75;;;;;;;;;;5074715;28;20248;-46
2021/01/23 05:47:39;;;;;;;1.33;0.85;;;;;;;;;;5091165;28;20268;-47
2021/01/23 05:50:09;;;;;;;0.70;0.70;;;;;;;;;;5104093;28;20230;-46
2021/01/23 05:52:35;;;;;;;0.90;0.80;;;;;;;;;;5086691;28;20190;-46
2021/01/23 05:55:02;;;;;;;2.22;0.90;;;;;;;;;;5074824;28;20182;-46
2021/01/23 05:57:28;;;;;;;5.85;0.90;;;;;;;;;;5075602;28;20469;-46
2021/01/23 05:59:54;;;;;;;0.80;0.80;;;;;;;;;;5075027;28;20171;-46
2021/01/23 06:02:22;;;;;;;1.10;0.80;;;;;;;;;;5087754;28;20221;-46
2021/01/23 06:04:49;;;;;;;2.67;1.00;;;;;;;;;;5073111;28;20628;-47
2021/01/23 06:07:35;;;;;;;2.17;0.77;;;;;;;;;;5084859;28;20252;-46
2021/01/23 06:10:00;;;;;;;1.17;0.73;;;;;;;;;;5095044;28;20186;-46
2021/01/23 06:12:29;;;;;;;1.90;0.90;;;;;;;;;;5080136;28;20204;-46
2021/01/23 06:14:56;;;;;;;1.00;0.80;;;;;;;;;;5094660;28;20178;-46
2021/01/23 06:17:40;;;;;;;0.98;0.80;;;;;;;;;;5093785;28;20280;-47
2021/01/23 06:20:07;;;;;;;0.95;0.82;;;;;;;;;;5095315;28;20572;-46
2021/01/23 06:22:53;;;;;;;1.77;0.85;;;;;;;;;;5083594;28;20258;-46
2021/01/23 06:25:19;;;;;;;2.15;0.88;;;;;;;;;;5093668;28;20165;-46
2021/01/23 06:27:49;;;;;;;0.80;0.80;;;;;;;;;;5082876;28;20194;-47
2021/01/23 06:30:28;;;;;;;1.20;0.80;;;;;;;;;;5074992;28;20220;-46
2021/01/23 06:32:54;;;;;;;1.42;0.80;;;;;;;;;;5079517;28;20265;-47
2021/01/23 06:35:20;;;;;;;1.85;0.70;;;;;;;;;;5074426;28;20201;-47
2021/01/23 06:37:46;;;;;;;0.70;0.60;;;;;;;;;;5074098;28;20228;-46
2021/01/23 06:40:12;;;;;;;0.75;0.75;;;;;;;;;;5074804;28;20183;-46
2021/01/23 06:42:38;;;;;;;1.80;0.60;;;;;;;;;;5089480;28;20182;-46
2021/01/23 06:45:24;;;;;;;1.23;0.90;;;;;;;;;;5073512;28;20175;-46
2021/01/23 06:47:52;;;;;;;0.77;0.60;;;;;;;;;;5076255;28;20227;-46
2021/01/23 06:50:35;;;;;;;1.10;0.80;;;;;;;;;;5091703;28;20185;-46
2021/01/23 06:53:02;;;;;;;1.80;1.17;;;;;;;;;;5083451;28;20589;-46
2021/01/23 06:55:47;;;;;;;16.35;8.20;;;;;;;;;;5073052;28;20578;-47
2021/01/23 06:58:17;;;;;;;40.17;19.95;;;;;;;;;;5073637;28;20485;-46
2021/01/23 07:00:43;;;;;;;42.78;18.77;;;;;;;;;;5078666;28;20213;-46
2021/01/23 07:03:10;;;;;;;31.00;17.30;;;;;;;;;;5080578;28;20179;-46
2021/01/23 07:05:37;;;;;;;33.20;17.77;;;;;;;;;;5073103;28;20185;-46
2021/01/23 07:08:03;;;;;;;31.67;16.90;;;;;;;;;;5074015;28;20182;-46
2021/01/23 07:10:29;;;;;;;39.00;16.98;;;;;;;;;;5076175;28;20276;-46
2021/01/23 07:12:55;;;;;;;31.65;16.73;;;;;;;;;;5087730;28;20261;-46
2021/01/23 07:15:24;;;;;;;31.33;15.75;;;;;;;;;;5075321;28;20186;-47
2021/01/23 07:17:50;;;;;;;30.05;15.93;;;;;;;;;;5081040;28;20222;-47
2021/01/23 07:20:17;;;;;;;28.98;15.95;;;;;;;;;;5095845;28;20224;-47
2021/01/23 07:22:43;;;;;;;32.92;16.23;;;;;;;;;;5082241;28;20182;-46
2021/01/23 07:25:11;;;;;;;36.03;16.52;;;;;;;;;;5073081;28;20170;-47
2021/01/23 07:27:37;;;;;;;29.73;15.65;;;;;;;;;;5082978;28;20186;-46
2021/01/23 07:30:13;;;;;;;31.67;15.63;;;;;;;;;;5090712;28;20193;-47
2021/01/23 07:32:40;;;;;;;29.15;15.13;;;;;;;;;;5076904;28;20231;-47
2021/01/23 07:35:06;;;;;;;28.30;15.10;;;;;;;;;;5093228;28;20545;-46
2021/01/23 07:37:47;;;;;;;30.75;15.45;;;;;;;;;;5092764;28;20259;-47
2021/01/23 07:40:15;;;;;;;30.42;15.23;;;;;;;;;;5089613;28;20183;-46
2021/01/23 07:42:41;;;;;;;26.13;13.80;;;;;;;;;;5079314;28;20224;-51
2021/01/23 07:45:12;;;;;;;22.65;11.00;;;;;;;;;;5087852;28;20178;-53
2021/01/23 07:47:38;;;;;;;19.90;11.15;;;;;;;;;;5093279;28;20189;-59
2021/01/23 07:50:11;;;;;;;17.08;9.18;;;;;;;;;;5099104;28;20193;-53
2021/01/23 07:52:37;;;;;;;19.98;9.88;;;;;;;;;;5088467;28;20193;-53
2021/01/23 07:55:05;;;;;;;26.48;12.10;;;;;;;;;;5072832;28;20426;-52
2021/01/23 07:57:31;;;;;;;22.15;11.13;;;;;;;;;;5081374;28;20216;-51
2021/01/23 07:59:57;;;;;;;19.98;10.73;;;;;;;;;;5077869;28;20453;-51
2021/01/23 08:02:23;;;;;;;18.00;11.20;;;;;;;;;;5085197;28;20187;-51
2021/01/23 08:04:53;;;;;;;18.58;10.68;;;;;;;;;;5091453;28;20217;-53
2021/01/23 08:07:24;;;;;;;21.05;10.95;;;;;;;;;;5085503;28;20611;-52
2021/01/23 08:10:05;;;;;;;24.50;10.57;;;;;;;;;;5072957;28;20692;-52
2021/01/23 08:12:31;;;;;;;18.30;10.30;;;;;;;;;;5073447;28;20236;-52
2021/01/23 08:14:57;;;;;;;19.73;11.02;;;;;;;;;;5092965;28;20182;-53
2021/01/23 08:17:56;;;;;;;20.88;10.30;;;;;;;;;;5079841;28;20209;-54
2021/01/23 08:20:33;;;;;;;22.10;9.85;;;;;;;;;;5051571;28;20201;-62
2021/01/23 08:23:06;;;;;;;17.83;11.02;;;;;;;;;;5091042;28;20219;-54
2021/01/23 08:25:32;;;;;;;16.83;9.75;;;;;;;;;;5090706;28;20183;-50
2021/01/23 08:27:59;;;;;;;17.88;10.32;;;;;;;;;;5080881;28;20598;-49
2021/01/23 08:30:25;;;;;;;16.85;9.45;;;;;;;;;;5088238;28;20193;-51
2021/01/23 08:32:51;;;;;;;17.58;8.80;;;;;;;;;;5080098;28;20212;-49
2021/01/23 08:35:18;;;;;;;16.73;10.13;;;;;;;;;;5095887;28;20276;-50
2021/01/23 08:37:45;;;;;;;16.38;9.27;;;;;;;;;;5095810;28;20201;-50
2021/01/23 08:40:12;;;;;;;19.27;9.43;;;;;;;;;;5091216;28;20178;-49
2021/01/23 08:42:38;;;;;;;13.73;8.18;;;;;;;;;;5077720;28;20236;-48
2021/01/23 08:45:07;;;;;;;16.20;8.65;;;;;;;;;;5094883;28;20169;-49
2021/01/23 08:47:33;;;;;;;15.07;7.82;;;;;;;;;;5089806;28;20196;-50
2021/01/23 08:49:59;;;;;;;14.27;8.27;;;;;;;;;;5101964;28;20264;-51
2021/01/23 08:52:25;;;;;;;14.60;8.20;;;;;;;;;;5094049;28;20178;-50
2021/01/23 08:54:51;;;;;;;29.88;9.45;;;;;;;;;;5076248;28;20232;-49
2021/01/23 08:57:17;;;;;;;18.67;8.55;;;;;;;;;;5082287;28;20201;-50
2021/01/23 08:59:43;;;;;;;12.60;7.80;;;;;;;;;;5096110;28;20624;-51
2021/01/23 09:02:10;;;;;;;23.75;9.40;;;;;;;;;;5095951;28;20217;-50
2021/01/23 09:04:37;;;;;;;16.50;6.90;;;;;;;;;;5084815;28;20185;-51
2021/01/23 09:07:04;;;;;;;13.18;5.78;;;;;;;;;;5090366;28;20239;-54
2021/01/23 09:09:30;;;;;;;12.65;5.25;;;;;;;;;;5075645;28;20193;-51
2021/01/23 09:11:56;;;;;;;17.75;5.10;;;;;;;;;;5083452;28;20191;-52
2021/01/23 09:14:22;;;;;;;9.95;5.00;;;;;;;;;;5089447;28;20190;-50
2021/01/23 09:16:48;;;;;;;8.57;4.78;;;;;;;;;;5095436;28;20188;-50
2021/01/23 09:19:14;;;;;;;11.63;4.93;;;;;;;;;;5095422;28;20602;-53
2021/01/23 09:21:40;;;;;;;8.15;5.20;;;;;;;;;;5093791;28;20193;-48
2021/01/23 09:24:09;;;;;;;9.52;4.55;;;;;;;;;;5080352;28;20185;-48
2021/01/23 09:26:35;;;;;;;9.00;4.55;;;;;;;;;;5095049;28;20173;-49
2021/01/23 09:29:01;;;;;;;7.20;4.47;;;;;;;;;;5080429;28;20596;-52
2021/01/23 09:31:27;;;;;;;7.45;4.43;;;;;;;;;;5082059;28;20181;-50
2021/01/23 09:33:53;;;;;;;5.70;4.50;;;;;;;;;;5085901;28;20186;-50
2021/01/23 09:36:20;;;;;;;8.20;4.13;;;;;;;;;;5080577;28;20281;-49
2021/01/23 09:38:46;;;;;;;7.47;5.03;;;;;;;;;;5094188;28;20217;-49
2021/01/23 09:41:12;;;;;;;10.10;4.65;;;;;;;;;;5083532;28;20197;-49
2021/01/23 09:43:38;;;;;;;8.60;4.43;;;;;;;;;;5084059;28;20205;-48
2021/01/23 09:46:04;;;;;;;6.70;3.63;;;;;;;;;;5074651;28;20265;-48
2021/01/23 09:48:30;;;;;;;7.78;4.18;;;;;;;;;;5074433;28;20183;-48
2021/01/23 09:50:56;;;;;;;13.15;5.43;;;;;;;;;;5096338;28;20572;-49
2021/01/23 09:53:22;;;;;;;7.60;4.85;;;;;;;;;;5091244;28;20193;-49
2021/01/23 09:55:48;;;;;;;8.15;4.72;;;;;;;;;;5094467;28;20561;-48
2021/01/23 09:58:14;;;;;;;10.25;5.10;;;;;;;;;;5078220;28;20339;-49
2021/01/23 10:00:40;;;;;;;7.40;4.88;;;;;;;;;;5074286;28;20571;-49
2021/01/23 10:03:06;;;;;;;11.00;5.47;;;;;;;;;;5079541;28;20248;-48
2021/01/23 10:05:33;;;;;;;8.88;5.15;;;;;;;;;;5093929;28;20602;-48
2021/01/23 10:07:59;;;;;;;9.05;4.95;;;;;;;;;;5085618;28;20179;-49
2021/01/23 10:10:25;;;;;;;10.57;5.57;;;;;;;;;;5090814;28;20215;-49
2021/01/23 10:12:52;;;;;;;8.60;5.05;;;;;;;;;;5094168;28;20242;-49
2021/01/23 10:15:18;;;;;;;10.52;4.90;;;;;;;;;;5093727;28;20177;-48
2021/01/23 10:17:44;;;;;;;12.10;4.82;;;;;;;;;;5083748;28;20230;-49
2021/01/23 10:20:11;;;;;;;10.25;4.50;;;;;;;;;;5089614;28;20224;-49
2021/01/23 10:22:37;;;;;;;7.28;4.18;;;;;;;;;;5085567;28;20553;-49
2021/01/23 10:25:03;;;;;;;7.10;4.20;;;;;;;;;;5074007;28;20178;-49
2021/01/23 10:27:29;;;;;;;7.65;4.72;;;;;;;;;;5076606;28;20229;-49
2021/01/23 10:29:55;;;;;;;8.68;4.15;;;;;;;;;;5086186;28;20209;-49
2021/01/23 10:32:22;;;;;;;5.68;4.18;;;;;;;;;;5094129;28;20190;-49
2021/01/23 10:34:48;;;;;;;6.05;3.83;;;;;;;;;;5079764;28;20212;-49
2021/01/23 10:37:14;;;;;;;7.55;4.25;;;;;;;;;;5073802;28;20198;-49
2021/01/23 10:39:40;;;;;;;5.70;3.50;;;;;;;;;;5073853;28;20277;-49
2021/01/23 10:42:06;;;;;;;5.38;3.42;;;;;;;;;;5077762;28;20260;-49
2021/01/23 10:44:38;;;;;;;6.55;3.58;;;;;;;;;;5082146;28;20186;-49
2021/01/23 10:47:04;;;;;;;7.10;3.30;;;;;;;;;;5087158;28;20178;-49
2021/01/23 10:49:30;;;;;;;4.28;3.00;;;;;;;;;;5084244;28;20230;-49
2021/01/23 10:51:56;;;;;;;4.72;3.05;;;;;;;;;;5079667;28;20201;-49
2021/01/23 10:54:22;;;;;;;6.60;3.13;;;;;;;;;;5089165;28;20260;-49
2021/01/23 10:56:48;;;;;;;5.32;2.88;;;;;;;;;;5079859;28;20588;-48
2021/01/23 10:59:14;;;;;;;3.80;2.58;;;;;;;;;;5079929;28;20263;-48
2021/01/23 11:01:40;;;;;;;3.97;2.50;;;;;;;;;;5075956;28;20182;-49
2021/01/23 11:04:06;;;;;;;5.88;2.90;;;;;;;;;;5075722;28;20170;-49
2021/01/23 11:06:32;;;;;;;4.43;2.50;;;;;;;;;;5083966;28;20264;-49
2021/01/23 11:08:58;;;;;;;5.95;2.90;;;;;;;;;;5087361;28;20322;-49
2021/01/23 11:11:24;;;;;;;4.90;2.60;;;;;;;;;;5081562;28;20213;-48
2021/01/23 11:13:50;;;;;;;8.23;2.95;;;;;;;;;;5084787;28;20265;-48
2021/01/23 11:16:17;;;;;;;5.40;2.53;;;;;;;;;;5084520;28;20170;-49
2021/01/23 11:18:44;;;;;;;6.45;2.85;;;;;;;;;;5093485;28;20212;-48
2021/01/23 11:21:10;;;;;;;4.72;2.67;;;;;;;;;;5078144;28;20190;-49
2021/01/23 11:23:36;;;;;;;5.28;2.65;;;;;;;;;;5091897;28;20186;-49
2021/01/23 11:26:02;;;;;;;3.13;2.35;;;;;;;;;;5088495;28;20185;-48
2021/01/23 11:28:27;;;;;;;12.05;4.75;;;;;;;;;;5085520;28;20659;-49
2021/01/23 11:30:54;;;;;;;33.05;7.85;;;;;;;;;;5081099;28;20178;-49
2021/01/23 11:33:21;;;;;;;48.03;13.20;;;;;;;;;;5077391;28;20240;-49
2021/01/23 11:35:47;;;;;;;91.35;27.02;;;;;;;;;;5085529;28;20185;-49
2021/01/23 11:38:14;;;;;;;111.72;30.77;;;;;;;;;;5091774;28;20573;-49
2021/01/23 11:40:40;;;;;;;113.90;32.28;;;;;;;;;;5093443;28;20243;-49
2021/01/23 11:43:06;;;;;;;101.20;29.65;;;;;;;;;;5090820;28;20564;-49
2021/01/23 11:45:31;;;;;;;100.68;28.90;;;;;;;;;;5092439;28;20190;-49
2021/01/23 11:47:57;;;;;;;76.20;25.60;;;;;;;;;;5085784;28;20252;-49
2021/01/23 11:50:23;;;;;;;70.88;23.55;;;;;;;;;;5081831;28;20209;-49
2021/01/23 11:52:49;;;;;;;72.65;22.63;;;;;;;;;;5087487;28;20591;-49
2021/01/23 11:55:15;;;;;;;56.10;20.92;;;;;;;;;;5074180;28;20183;-49
2021/01/23 11:57:41;;;;;;;52.88;18.58;;;;;;;;;;5073099;28;20289;-49
2021/01/23 12:00:08;;;;;;;50.50;17.50;;;;;;;;;;5073257;28;20171;-49
2021/01/23 12:02:34;;;;;;;46.17;17.50;;;;;;;;;;5083127;28;20778;-50
2021/01/23 12:05:00;;;;;;;50.22;17.00;;;;;;;;;;5096684;28;20186;-49
2021/01/23 12:07:26;;;;;;;45.05;16.75;;;;;;;;;;5095007;28;20178;-48
2021/01/23 12:09:52;;;;;;;39.50;16.67;;;;;;;;;;5082998;28;20251;-49
2021/01/23 12:12:18;;;;;;;45.75;16.05;;;;;;;;;;5090129;28;20195;-49
2021/01/23 12:14:44;;;;;;;39.28;14.23;;;;;;;;;;5095075;28;20200;-49
2021/01/23 12:17:10;;;;;;;50.10;18.00;;;;;;;;;;5096884;28;20597;-49
2021/01/23 12:19:37;;;;;;;45.05;17.13;;;;;;;;;;5090789;28;20192;-49
2021/01/23 12:22:03;;;;;;;43.17;16.58;;;;;;;;;;5094401;28;20174;-49
2021/01/23 12:24:32;;;;;;;39.38;15.30;;;;;;;;;;5095981;28;20557;-49
2021/01/23 12:26:58;;;;;;;32.55;14.25;;;;;;;;;;5086230;28;20177;-49
2021/01/23 12:29:24;;;;;;;29.35;14.02;;;;;;;;;;5076252;28;20562;-49
2021/01/23 12:31:50;;;;;;;33.00;13.75;;;;;;;;;;5094001;28;20173;-49
2021/01/23 12:34:16;;;;;;;36.97;13.48;;;;;;;;;;5075645;28;20206;-49
2021/01/23 12:36:42;;;;;;;30.83;12.73;;;;;;;;;;5078042;28;20631;-50
2021/01/23 12:39:08;;;;;;;30.58;12.82;;;;;;;;;;5096729;28;20228;-49
2021/01/23 12:41:34;;;;;;;27.23;12.02;;;;;;;;;;5080079;28;20232;-48
2021/01/23 12:44:00;;;;;;;23.10;11.45;;;;;;;;;;5076930;28;20186;-49
2021/01/23 12:46:26;;;;;;;27.60;12.40;;;;;;;;;;5075620;28;20193;-49
2021/01/23 12:48:52;;;;;;;21.38;10.20;;;;;;;;;;5077262;28;20422;-49
2021/01/23 12:51:18;;;;;;;22.40;10.65;;;;;;;;;;5098723;28;20189;-49
2021/01/23 12:53:45;;;;;;;21.35;9.77;;;;;;;;;;5090880;28;20206;-48
2021/01/23 12:56:11;;;;;;;21.42;9.70;;;;;;;;;;5094411;28;20193;-49
2021/01/23 12:58:37;;;;;;;22.65;10.48;;;;;;;;;;5094717;28;20224;-49
2021/01/23 13:01:03;;;;;;;22.73;9.80;;;;;;;;;;5096156;28;20198;-48
2021/01/23 13:03:30;;;;;;;19.13;9.10;;;;;;;;;;5089402;28;20259;-49
2021/01/23 13:05:56;;;;;;;16.85;8.60;;;;;;;;;;5095549;28;20219;-49
2021/01/23 13:08:22;;;;;;;16.90;7.55;;;;;;;;;;5095786;28;20185;-49
2021/01/23 13:10:48;;;;;;;21.02;8.02;;;;;;;;;;5095964;28;20193;-49
2021/01/23 13:13:14;;;;;;;17.15;8.38;;;;;;;;;;5090920;28;20553;-48
2021/01/23 13:15:41;;;;;;;14.40;7.70;;;;;;;;;;5075366;28;20186;-49
2021/01/23 13:18:09;;;;;;;14.75;7.15;;;;;;;;;;5075397;28;20210;-48
2021/01/23 13:20:36;;;;;;;18.15;8.38;;;;;;;;;;5085999;28;20179;-49
2021/01/23 13:23:02;;;;;;;15.20;7.97;;;;;;;;;;5078561;28;20178;-48
2021/01/23 13:25:28;;;;;;;13.25;7.20;;;;;;;;;;5078676;28;20189;-48
2021/01/23 13:27:54;;;;;;;15.40;7.78;;;;;;;;;;5095593;28;20268;-49
2021/01/23 13:30:20;;;;;;;12.05;6.40;;;;;;;;;;5094158;28;20186;-48
2021/01/23 13:32:47;;;;;;;15.05;6.90;;;;;;;;;;5087835;28;20261;-48
2021/01/23 13:35:14;;;;;;;13.32;6.18;;;;;;;;;;5074588;28;20182;-50
2021/01/23 13:37:40;;;;;;;13.52;6.40;;;;;;;;;;5081181;28;20206;-48
2021/01/23 13:40:06;;;;;;;10.23;5.55;;;;;;;;;;5095753;28;20205;-49
2021/01/23 13:42:32;;;;;;;11.98;5.38;;;;;;;;;;5090674;28;20239;-48
2021/01/23 13:44:58;;;;;;;8.25;5.20;;;;;;;;;;5094738;28;20489;-48
2021/01/23 13:47:24;;;;;;;9.10;5.00;;;;;;;;;;5087570;28;20183;-49
2021/01/23 13:49:50;;;;;;;12.57;5.75;;;;;;;;;;5092612;28;20231;-49
2021/01/23 13:52:16;;;;;;;10.73;5.50;;;;;;;;;;5101720;28;20178;-49
2021/01/23 13:54:45;;;;;;;9.80;5.30;;;;;;;;;;5094771;28;20190;-48
2021/01/23 13:57:11;;;;;;;9.25;5.25;;;;;;;;;;5092437;28;20262;-49
2021/01/23 13:59:37;;;;;;;9.63;4.95;;;;;;;;;;5094970;28;20260;-49
2021/01/23 14:02:02;;;;;;;8.48;4.63;;;;;;;;;;5085724;28;20195;-49
2021/01/23 14:04:29;;;;;;;8.30;4.82;;;;;;;;;;5093960;28;20182;-49
2021/01/23 14:06:55;;;;;;;10.10;5.40;;;;;;;;;;5094885;28;20215;-49
2021/01/23 14:09:20;;;;;;;10.50;4.60;;;;;;;;;;5085807;28;20182;-49
2021/01/23 14:11:46;;;;;;;8.40;4.85;;;;;;;;;;5077514;28;20194;-49
2021/01/23 14:14:12;;;;;;;7.10;4.03;;;;;;;;;;5076072;28;20214;-49
2021/01/23 14:16:38;;;;;;;8.18;4.25;;;;;;;;;;5074334;28;20179;-49
2021/01/23 14:19:04;;;;;;;6.82;3.72;;;;;;;;;;5084649;28;20307;-49
2021/01/23 14:21:31;;;;;;;6.55;3.88;;;;;;;;;;5112829;28;20227;-49
2021/01/23 14:23:57;;;;;;;6.78;3.80;;;;;;;;;;5078319;28;20517;-49
2021/01/23 14:26:23;;;;;;;6.95;4.28;;;;;;;;;;5073790;28;20197;-49
2021/01/23 14:28:49;;;;;;;10.40;3.80;;;;;;;;;;5081127;28;20215;-49
2021/01/23 14:31:15;;;;;;;8.18;3.78;;;;;;;;;;5094278;28;20181;-49
2021/01/23 14:33:41;;;;;;;6.80;3.92;;;;;;;;;;5081154;28;20568;-49
2021/01/23 14:36:07;;;;;;;6.78;3.88;;;;;;;;;;5074832;28;20243;-48